Flight Track Log - Related Links

Times and Time Zones

All times are in EDT time to prevent confusion due to time zone crossing. See the SKW6514 flight status page for this flight to view local times or setup timezone preferences in your user account.

Time Position Orientation Groundspeed Altitude Reporting Facility
EDT Latitude Longitude Course Direction KTS MPH feet Rate Location/Type
Thu 07:02:26 PM 29.9575 -95.3442 337° Northwest 168 193 700  Level Houston Center
Thu 07:03:08 PM 29.9414 -95.3750 239° Southwest 216 249 2,000 1,939 Climbing Houston Center
Thu 07:04:05 PM 29.9961 -95.3950 342° North 211 243 3,900 1,935 Climbing Houston Center
Thu 07:04:10 PM 30.0022 -95.3967 347° North 266 306 4,000 91 Climbing Houston Center
Thu 07:05:00 PM 30.3419 -95.5456 335° Northwest  Level FlightAware Approximate
Thu 07:05:11 PM 30.0761 -95.4239 342° North 264 304 4,000  Level Houston Center
Thu 07:06:00 PM 30.4330 -95.5960 334° Northwest  Level FlightAware Approximate
Thu 07:06:09 PM 30.1328 -95.4553 334° Northwest 263 303 4,700  Level Houston Center
Thu 07:06:19 PM 30.1511 -95.4631 340° North 270 311 5,500 3,194 Climbing Houston Center
Thu 07:07:00 PM 30.5244 -95.6455 337° Northwest  Level FlightAware Approximate
Thu 07:07:11 PM 30.2028 -95.4842 341° North 268 308 8,000  Level Houston Center
Thu 07:08:00 PM 30.6171 -95.6918 337° Northwest  Level FlightAware Approximate
Thu 07:08:14 PM 30.2736 -95.5208 336° Northwest 272 313 10,500  Level Houston Center
Thu 07:09:16 PM 30.3653 -95.5633 338° Northwest 292 336 13,300 2,516 Climbing Houston Center
Thu 07:10:18 PM 30.4458 -95.6075 335° Northwest 312 359 15,700 2,226 Climbing Houston Center
Thu 07:11:20 PM 30.5267 -95.6472 337° Northwest 316 364 17,900 1,935 Climbing Houston Center
Thu 07:12:22 PM 30.6125 -95.6903 337° Northwest 331 381 19,700 1,839 Climbing Houston Center
Thu 07:13:24 PM 30.7017 -95.7397 335° Northwest 335 386 21,700 1,824 Climbing Houston Center
Thu 07:14:27 PM 30.7908 -95.7878 335° Northwest 347 399 23,500 1,104 Climbing Houston Center
Thu 07:15:29 PM 30.8844 -95.8378 335° Northwest 367 422 24,000 242 Climbing Houston Center
Thu 07:16:31 PM 31.0061 -95.9033 335° Northwest 394 453 24,000  Level Houston Center
Thu 07:17:33 PM 31.1114 -95.9600 335° Northwest 410 472 24,000 677 Level Houston Center
Thu 07:18:35 PM 31.2208 -96.0044 341° North 411 473 25,400 1,452 Climbing Houston Center
Thu 07:19:37 PM 31.3303 -96.0467 342° North 412 474 27,000 1,500 Climbing Houston Center
Thu 07:20:39 PM 31.4336 -96.0853 342° North 403 464 28,500 1,500 Climbing Houston Center
Thu 07:21:41 PM 31.5561 -96.1333 342° North 397 457 30,100 1,579 Climbing Houston Center
Thu 07:22:33 PM 31.6417 -96.1650 343° North 393 452 31,500 1,316 Climbing Fort Worth Center
Thu 07:23:35 PM 31.7425 -96.2069 341° North 382 440 32,600 1,645 Climbing Fort Worth Center
Thu 07:24:37 PM 31.8106 -96.2792 318° Northwest 334 384 34,900 1,694 Climbing Fort Worth Center
Thu 07:25:39 PM 31.8714 -96.3481 316° Northwest 307 353 36,100 968 Climbing Fort Worth Center
Thu 07:26:41 PM 31.9425 -96.4342 314° West 306 352 36,900 774 Climbing Fort Worth Center
Thu 07:27:43 PM 32.0003 -96.5067 313° West 303 349 37,700 532 Climbing Fort Worth Center
Thu 07:28:45 PM 32.0592 -96.5769 315° West 302 348 38,000 144 Climbing Fort Worth Center
Thu 07:29:48 PM 32.1208 -96.6483 316° Northwest 305 351 38,000  Level Fort Worth Center
Thu 07:30:50 PM 32.1831 -96.7267 313° West 324 373 38,000  Level Fort Worth Center
Thu 07:31:52 PM 32.2481 -96.8050 314° West 330 380 38,000  Level Fort Worth Center
Thu 07:32:54 PM 32.3272 -96.9003 315° West 336 387 38,000  Level Fort Worth Center
Thu 07:33:56 PM 32.3936 -96.9814 314° West 339 390 38,000  Level Fort Worth Center
Thu 07:34:58 PM 32.4594 -97.0631 314° West 341 392 38,000  Level Fort Worth Center
Thu 07:36:00 PM 32.5267 -97.1447 314° West 343 395 38,000  Level Fort Worth Center
Thu 07:37:02 PM 32.5978 -97.2311 314° West 346 398 38,000  Level Fort Worth Center
Thu 07:38:04 PM 32.6603 -97.3106 313° West 346 398 38,000  Level Fort Worth Center
Thu 07:39:06 PM 32.7275 -97.3950 313° West 346 398 38,000  Level Fort Worth Center
Thu 07:40:08 PM 32.7964 -97.4800 314° West 350 403 38,000  Level Fort Worth Center
Thu 07:41:11 PM 32.8783 -97.5819 314° West 352 405 38,000  Level Fort Worth Center
Thu 07:42:13 PM 32.9464 -97.6661 314° West 351 404 38,000  Level Fort Worth Center
Thu 07:43:15 PM 33.0139 -97.7494 314° West 350 403 38,000  Level Fort Worth Center
Thu 07:44:17 PM 33.0806 -97.8336 313° West 350 403 38,000  Level Fort Worth Center
Thu 07:45:19 PM 33.1461 -97.9172 313° West 348 400 38,000  Level Fort Worth Center
Thu 07:46:21 PM 33.2181 -98.0075 314° West 348 400 38,000  Level Fort Worth Center
Thu 07:47:23 PM 33.2936 -98.1014 314° West 348 400 38,000  Level Fort Worth Center
Thu 07:48:25 PM 33.3639 -98.1875 314° West 356 410 38,000  Level Fort Worth Center
Thu 07:49:27 PM 33.4269 -98.2689 313° West 349 402 38,000  Level Fort Worth Center
Thu 07:50:29 PM 33.5028 -98.3644 314° West 349 402 38,000  Level Fort Worth Center
Thu 07:51:32 PM 33.5617 -98.4406 313° West 350 403 38,000  Level Fort Worth Center
Thu 07:52:34 PM 33.6267 -98.5225 314° West 350 403 38,000  Level Fort Worth Center
Thu 07:53:36 PM 33.7081 -98.6264 313° West 352 405 38,000  Level Fort Worth Center
Thu 07:54:38 PM 33.7797 -98.7172 314° West 354 407 38,000  Level Fort Worth Center
Thu 07:55:40 PM 33.8464 -98.8031 313° West 354 407 38,000  Level Fort Worth Center
Thu 07:56:42 PM 33.9139 -98.8911 313° West 355 409 38,000  Level Fort Worth Center
Thu 07:57:44 PM 33.9822 -98.9772 314° West 355 409 38,000  Level Fort Worth Center
Thu 07:58:46 PM 34.0508 -99.0653 313° West 356 410 38,000  Level Fort Worth Center
Thu 07:59:49 PM 34.1297 -99.1703 312° West 365 420 38,000  Level Fort Worth Center
Thu 08:00:51 PM 34.1964 -99.2572 313° West 362 417 38,000  Level Fort Worth Center
Thu 08:01:53 PM 34.2647 -99.3475 312° West 360 414 38,000  Level Fort Worth Center
Thu 08:02:55 PM 34.3325 -99.4358 313° West 359 413 38,000  Level Fort Worth Center
Thu 08:03:57 PM 34.4025 -99.5247 314° West 358 412 38,000  Level Fort Worth Center
Thu 08:04:59 PM 34.4844 -99.6339 312° West 362 417 38,000  Level Fort Worth Center
Thu 08:06:01 PM 34.5533 -99.7250 313° West 362 417 38,000  Level Fort Worth Center
Thu 08:07:03 PM 34.6219 -99.8164 312° West 363 418 38,000  Level Fort Worth Center
Thu 08:08:05 PM 34.6914 -99.9058 313° West 364 419 38,000  Level Fort Worth Center
Thu 08:09:07 PM 34.7594 -99.9978 312° West 364 419 38,000  Level Fort Worth Center
Thu 08:10:09 PM 34.8289 -100.0892 313° West 364 419 38,000  Level Fort Worth Center
Thu 08:11:12 PM 34.8978 -100.1808 313° West 366 421 38,000  Level Fort Worth Center
Thu 08:12:14 PM 34.9794 -100.2925 312° West 366 421 38,000  Level Fort Worth Center
Thu 08:13:16 PM 35.0503 -100.3869 313° West 369 425 38,000  Level Fort Worth Center
Thu 08:14:18 PM 35.1192 -100.4806 312° West 369 425 38,000  Level Fort Worth Center
Thu 08:15:20 PM 35.1950 -100.5806 313° West 375 432 38,000  Level Fort Worth Center
Thu 08:16:22 PM 35.2608 -100.6706 312° West 375 432 38,000  Level Fort Worth Center
Thu 08:17:24 PM 35.3311 -100.7669 312° West 375 432 38,000  Level Fort Worth Center
Thu 08:18:26 PM 35.4014 -100.8614 312° West 376 433 38,000  Level Fort Worth Center
Thu 08:19:28 PM 35.4850 -100.9769 312° West 376 433 38,000  Level Fort Worth Center
Thu 08:20:30 PM 35.5542 -101.0722 312° West 377 434 38,000  Level Fort Worth Center
Thu 08:21:33 PM 35.6228 -101.1667 312° West 376 433 38,000  Level Fort Worth Center
Thu 08:22:35 PM 35.6933 -101.2647 312° West 375 432 38,000  Level Fort Worth Center
Thu 08:23:37 PM 35.7728 -101.3747 312° West 375 432 38,000  Level Fort Worth Center
Thu 08:24:57 PM 35.8542 -101.4881 312° West 375 432 38,000  Level Albuquerque Center
Thu 08:25:59 PM 35.9228 -101.5833 312° West 374 430 38,000  Level Albuquerque Center
Thu 08:27:01 PM 36.0047 -101.6967 312° West 374 430 38,000  Level Albuquerque Center
Thu 08:28:03 PM 36.0722 -101.7928 311° West 373 429 38,000  Level Albuquerque Center
Thu 08:29:05 PM 36.1389 -101.8892 311° West 373 429 38,000  Level Albuquerque Center
Thu 08:30:07 PM 36.2081 -101.9839 312° West 373 429 38,000  Level Albuquerque Center
Thu 08:31:09 PM 36.2753 -102.0808 311° West 373 429 38,000  Level Albuquerque Center
Thu 08:32:11 PM 36.3575 -102.1953 312° West 372 428 38,000  Level Albuquerque Center
Thu 08:34:19 PM 36.4947 -102.3908 311° West 372 428 38,000  Level Denver Center
Thu 08:35:17 PM 36.5589 -102.4833 311° West 371 427 38,000  Level Albuquerque Center
Thu 08:36:19 PM 36.6303 -102.5847 311° West 371 427 38,000  Level Albuquerque Center
Thu 08:37:21 PM 36.7044 -102.6939 310° West 371 427 38,000  Level Albuquerque Center
Thu 08:38:23 PM 36.7697 -102.7886 311° West 371 427 38,000  Level Albuquerque Center
Thu 08:39:25 PM 36.8464 -102.8992 311° West 372 428 38,000  Level Albuquerque Center
Thu 08:40:27 PM 36.9133 -102.9958 311° West 381 438 38,000  Level Albuquerque Center
Thu 08:41:29 PM 36.9806 -103.0931 311° West 383 441 38,000  Level Albuquerque Center
Thu 08:42:31 PM 37.0586 -103.2092 310° West 386 444 38,000  Level Albuquerque Center
Thu 08:43:33 PM 37.1264 -103.3078 311° West 387 445 38,000  Level Albuquerque Center
Thu 08:44:35 PM 37.2056 -103.4217 311° West 387 445 38,000  Level Albuquerque Center
Thu 08:45:41 PM 37.2675 -103.5433 303° West 373 429 38,000 -94 Level Denver Center
Thu 08:46:43 PM 37.3147 -103.6550 298° West 376 433 37,800 -629 Descending Denver Center
Thu 08:47:45 PM 37.3706 -103.7850 298° West 376 433 36,700 -871 Descending Denver Center
Thu 08:48:47 PM 37.4186 -103.8969 298° West 376 433 36,000 -339 Descending Denver Center
Thu 08:49:49 PM 37.4653 -104.0078 298° West 375 432 36,000  Level Denver Center
Thu 08:50:51 PM 37.5208 -104.1431 297° West 376 433 36,000  Level Denver Center
Thu 08:51:53 PM 37.5706 -104.2589 298° West 386 444 36,000  Level Denver Center
Thu 08:52:55 PM 37.6283 -104.3967 298° West 392 451 36,000  Level Denver Center
Thu 08:53:57 PM 37.6778 -104.5150 298° West 394 453 36,000  Level Denver Center
Thu 08:54:59 PM 37.7264 -104.6314 298° West 394 453 36,000 -532 Level Denver Center
Thu 08:56:01 PM 37.7828 -104.7681 298° West 394 453 34,900 -1,016 Descending Denver Center
Thu 08:57:03 PM 37.8308 -104.8839 298° West 392 451 33,900 -1,258 Descending Denver Center
Thu 08:58:05 PM 37.8847 -105.0167 297° West 383 441 32,300 -1,597 Descending Denver Center
Thu 08:59:07 PM 37.9322 -105.1333 297° West 385 443 30,600 -1,742 Descending Denver Center
Thu 09:00:09 PM 37.9883 -105.2714 297° West 390 449 28,700 -1,463 Descending Denver Center
Thu 09:01:10 PM 38.0353 -105.3875 297° West 390 449 27,600 -780 Descending Denver Center
Thu 09:02:12 PM 38.0892 -105.5228 297° West 384 442 27,100 -290 Descending Denver Center
Thu 09:03:14 PM 38.1381 -105.6417 298° West 394 453 27,000 -48 Descending Denver Center
Thu 09:04:16 PM 38.1919 -105.7756 297° West 384 442 27,000  Level Denver Center
Thu 09:05:18 PM 38.2361 -105.8881 297° West 376 433 27,000 -145 Level Denver Center
Thu 09:06:20 PM 38.2878 -106.0158 297° West 367 422 26,700 -629 Descending Denver Center
Thu 09:07:22 PM 38.3339 -106.1342 296° West 385 443 25,700 -919 Descending Denver Center
Thu 09:08:24 PM 38.3800 -106.2536 296° West 395 455 24,800 -968 Descending Denver Center
Thu 09:09:26 PM 38.4478 -106.3583 310° West 392 451 23,700 -968 Descending Denver Center
Thu 09:10:28 PM 38.5467 -106.4131 337° Northwest 386 444 22,800 -823 Descending Denver Center
Thu 09:11:30 PM 38.6703 -106.4786 338° Northwest 398 458 22,000 -435 Descending Denver Center
Thu 09:12:32 PM 38.7711 -106.5322 337° Northwest 396 456 21,900 -726 Descending Denver Center
Thu 09:13:34 PM 38.8614 -106.5808 337° Northwest 386 444 20,500 -1,500 Descending Denver Center
Thu 09:14:36 PM 38.9753 -106.6414 338° Northwest 385 443 18,800 -1,548 Descending Denver Center
Thu 09:15:38 PM 39.0614 -106.6889 337° Northwest 362 417 17,300 -1,452 Descending Denver Center
Thu 09:16:40 PM 39.1503 -106.7375 337° Northwest 358 412 15,800 -1,220 Descending Denver Center
Thu 09:17:41 PM 39.2297 -106.7811 337° Northwest 323 372 14,800 -927 Descending Denver Center
Thu 09:18:43 PM 39.3097 -106.8242 337° Northwest 269 310 13,900 -435 Descending Denver Center
Thu 09:19:45 PM 39.3742 -106.8592 337° Northwest 256 295 13,900 -242 Level Denver Center
Thu 09:20:47 PM 39.4006 -106.9200 299° West 214 246 13,400 -726 Descending Denver Center
Thu 09:21:49 PM 39.3628 -106.9361 198° South 181 208 12,400 -1,306 Descending Denver Center
Thu 09:22:51 PM 39.3167 -106.9144 160° South 182 209 10,700 -1,694 Descending Denver Center
Thu 09:23:53 PM 39.2750 -106.8942 159° South 172 198 8,900 -1,065 Descending Denver Center
Thu 09:24:55 PM 39.2319 -106.8742 160° South 170 196 8,500 -387 Descending Denver Center

Login

Don't have an account? Register now (free) for customized features, flight alerts, and more!